createdAt,value
2022-11-18T00:00:31.276Z,10.32
2022-11-18T00:03:34.022Z,10.57
2022-11-18T00:06:36.863Z,11.70
2022-11-18T00:09:41.038Z,9.10
2022-11-18T00:13:01.091Z,9.10
2022-11-18T00:16:04.193Z,15.57
2022-11-18T00:19:06.901Z,12.80
2022-11-18T00:22:12.356Z,12.65
2022-11-18T00:25:16.658Z,17.77
2022-11-18T00:28:19.587Z,12.65
2022-11-18T00:31:22.414Z,14.15
2022-11-18T00:34:25.451Z,13.27
2022-11-18T00:37:28.585Z,9.23
2022-11-18T00:40:32.819Z,11.27
2022-11-18T00:43:34.718Z,14.27
2022-11-18T00:46:37.542Z,8.43
2022-11-18T00:49:40.320Z,14.45
2022-11-18T00:52:43.270Z,10.60
2022-11-18T00:55:47.465Z,36.70
2022-11-18T00:58:50.505Z,18.95
2022-11-18T01:01:53.611Z,10.13
2022-11-18T01:04:56.441Z,13.07
2022-11-18T01:07:59.197Z,13.70
2022-11-18T01:11:17.257Z,13.48
2022-11-18T01:14:20.205Z,14.40
2022-11-18T01:17:23.000Z,13.50
2022-11-18T01:20:25.936Z,10.48
2022-11-18T01:23:28.882Z,12.93
2022-11-18T01:26:33.165Z,11.05
2022-11-18T01:29:36.182Z,12.13
2022-11-18T01:32:39.144Z,12.93
2022-11-18T01:35:42.581Z,10.77
2022-11-18T01:38:45.911Z,10.30
2022-11-18T01:41:50.581Z,10.57
2022-11-18T01:44:57.209Z,14.00
2022-11-18T01:48:03.124Z,12.60
2022-11-18T01:51:07.226Z,10.02
2022-11-18T01:54:12.871Z,12.52
2022-11-18T01:57:19.406Z,9.63
2022-11-18T02:00:22.316Z,10.00
2022-11-18T02:03:26.553Z,11.20
2022-11-18T02:06:29.481Z,11.68
2022-11-18T02:09:32.422Z,10.30
2022-11-18T02:12:37.022Z,11.75
2022-11-18T02:15:46.808Z,15.55
2022-11-18T02:18:56.140Z,9.60
2022-11-18T02:22:05.146Z,10.07
2022-11-18T02:25:15.577Z,11.00
2022-11-18T02:28:33.099Z,10.45
2022-11-18T02:31:41.137Z,14.45
2022-11-18T02:34:49.577Z,10.55
2022-11-18T02:37:55.786Z,12.43
2022-11-18T02:41:01.211Z,10.02
2022-11-18T02:44:05.877Z,11.90
2022-11-18T02:47:12.606Z,10.45
2022-11-18T02:50:17.443Z,12.73
2022-11-18T02:53:21.645Z,11.77
2022-11-18T02:56:26.291Z,7.55
2022-11-18T02:59:29.503Z,11.25
2022-11-18T03:02:40.587Z,9.40
2022-11-18T03:05:48.066Z,7.55
2022-11-18T03:08:54.457Z,9.48
2022-11-18T03:12:00.115Z,8.40
2022-11-18T03:15:08.958Z,11.82
2022-11-18T03:18:17.535Z,8.98
2022-11-18T03:21:21.901Z,8.70
2022-11-18T03:24:27.824Z,9.10
2022-11-18T03:27:32.798Z,6.88
2022-11-18T03:30:37.894Z,7.97
2022-11-18T03:33:43.580Z,5.88
2022-11-18T03:36:51.768Z,7.85
2022-11-18T03:39:55.893Z,9.63
2022-11-18T03:43:01.668Z,7.93
2022-11-18T03:46:08.976Z,10.95
2022-11-18T03:49:29.406Z,7.70
2022-11-18T03:52:33.847Z,8.00
2022-11-18T03:55:38.845Z,6.63
2022-11-18T03:58:43.980Z,8.43
2022-11-18T04:01:49.701Z,11.63
2022-11-18T04:04:54.849Z,10.93
2022-11-18T04:07:58.817Z,9.05
2022-11-18T04:11:03.290Z,9.05
2022-11-18T04:14:08.484Z,7.20
2022-11-18T04:17:13.467Z,10.75
2022-11-18T04:20:19.293Z,9.10
2022-11-18T04:23:22.012Z,7.85
2022-11-18T04:26:27.953Z,10.80
2022-11-18T04:29:31.639Z,9.05
2022-11-18T04:32:34.944Z,9.68
2022-11-18T04:35:39.024Z,6.65
2022-11-18T04:38:41.776Z,10.52
2022-11-18T04:41:56.388Z,12.48
2022-11-18T04:44:59.437Z,12.20
2022-11-18T04:48:03.878Z,7.75
2022-11-18T04:51:08.165Z,11.70
2022-11-18T04:54:11.354Z,10.63
2022-11-18T04:57:14.161Z,6.80
2022-11-18T05:00:17.577Z,12.85
2022-11-18T05:03:20.703Z,10.18
2022-11-18T05:06:24.799Z,10.60
2022-11-18T05:09:31.482Z,8.30
2022-11-18T05:12:49.978Z,9.25
2022-11-18T05:15:52.603Z,11.50
2022-11-18T05:18:55.311Z,13.18
2022-11-18T05:21:59.467Z,14.05
2022-11-18T05:25:02.477Z,14.38
2022-11-18T05:28:06.002Z,11.80
2022-11-18T05:31:09.006Z,15.98
2022-11-18T05:34:12.011Z,14.05
2022-11-18T05:37:16.000Z,12.00
2022-11-18T05:40:18.914Z,11.13
2022-11-18T05:43:21.620Z,11.35
2022-11-18T05:46:24.241Z,17.25
2022-11-18T05:49:26.870Z,12.93
2022-11-18T05:52:30.950Z,11.43
2022-11-18T05:55:36.446Z,5.80
2022-11-18T05:58:39.397Z,16.10
2022-11-18T06:01:44.260Z,12.02
2022-11-18T06:04:47.735Z,13.48
2022-11-18T06:07:51.768Z,13.85
2022-11-18T06:10:54.788Z,13.23
2022-11-18T06:13:59.701Z,13.68
2022-11-18T06:17:04.343Z,12.38
2022-11-18T06:20:07.527Z,20.55
2022-11-18T06:23:11.867Z,12.50
2022-11-18T06:26:15.343Z,12.43
2022-11-18T06:29:21.746Z,9.68
2022-11-18T06:32:27.618Z,19.08
2022-11-18T06:35:30.361Z,10.90
2022-11-18T06:38:34.547Z,13.00
2022-11-18T06:41:37.185Z,16.85
2022-11-18T06:44:39.819Z,15.13
2022-11-18T06:47:42.446Z,15.73
2022-11-18T06:50:45.280Z,13.50
2022-11-18T06:53:49.908Z,17.15
2022-11-18T06:56:52.514Z,12.00
2022-11-18T07:00:00.606Z,14.82
2022-11-18T07:03:04.627Z,16.17
2022-11-18T07:06:07.876Z,6.38
2022-11-18T07:09:11.858Z,13.05
2022-11-18T07:12:14.889Z,15.25
2022-11-18T07:15:17.794Z,14.75
2022-11-18T07:18:20.464Z,10.85
2022-11-18T07:21:23.973Z,7.70
2022-11-18T07:24:28.078Z,11.25
2022-11-18T07:27:30.693Z,2.10
2022-11-18T07:30:33.416Z,6.22
2022-11-18T07:33:36.679Z,9.75
2022-11-18T07:36:39.343Z,3.70
2022-11-18T07:39:43.271Z,7.40
2022-11-18T07:42:46.107Z,5.38
2022-11-18T07:46:00.717Z,8.32
2022-11-18T07:49:05.442Z,9.77
2022-11-18T07:52:08.334Z,6.18
2022-11-18T07:55:12.624Z,5.65
2022-11-18T07:58:36.075Z,10.52
2022-11-18T08:01:42.019Z,10.13
2022-11-18T08:04:44.992Z,10.38
2022-11-18T08:07:47.764Z,5.60
2022-11-18T08:10:51.865Z,9.88
2022-11-18T08:13:54.613Z,8.18
2022-11-18T08:16:57.255Z,9.57
2022-11-18T08:20:00.110Z,6.85
2022-11-18T08:23:02.850Z,11.93
2022-11-18T08:26:13.670Z,13.27
2022-11-18T08:29:21.924Z,8.15
2022-11-18T08:32:29.593Z,9.90
2022-11-18T08:35:34.852Z,13.35
2022-11-18T08:38:37.601Z,11.68
2022-11-18T08:41:43.744Z,8.05
2022-11-18T08:44:48.757Z,11.18
2022-11-18T08:47:54.291Z,14.57
2022-11-18T08:50:58.543Z,14.60
2022-11-18T08:54:02.275Z,11.35
2022-11-18T08:57:09.434Z,15.10
2022-11-18T09:00:14.195Z,4.85
2022-11-18T09:03:20.395Z,12.52
2022-11-18T09:06:24.740Z,13.40
2022-11-18T09:09:31.496Z,17.35
2022-11-18T09:12:36.109Z,12.32
2022-11-18T09:15:39.096Z,19.23
2022-11-18T09:18:42.542Z,13.85
2022-11-18T09:21:48.388Z,11.18
2022-11-18T09:24:51.426Z,13.73
2022-11-18T09:27:55.771Z,12.23
2022-11-18T09:30:58.650Z,15.30
2022-11-18T09:34:01.547Z,9.32
2022-11-18T09:37:06.416Z,12.63
2022-11-18T09:40:14.935Z,9.30
2022-11-18T09:43:23.363Z,9.98
2022-11-18T09:46:31.336Z,10.75
2022-11-18T09:49:37.001Z,11.38
2022-11-18T09:52:42.116Z,8.13
2022-11-18T09:55:45.561Z,7.82
2022-11-18T09:58:49.709Z,11.23
2022-11-18T10:01:56.157Z,7.75
2022-11-18T10:05:02.159Z,8.80
2022-11-18T10:08:15.098Z,9.38
2022-11-18T10:11:22.516Z,9.75
2022-11-18T10:14:51.442Z,9.82
2022-11-18T10:18:02.858Z,10.13
2022-11-18T10:21:13.096Z,8.38
2022-11-18T10:24:20.362Z,11.00
2022-11-18T10:27:24.685Z,9.68
2022-11-18T10:30:34.859Z,6.75
2022-11-18T10:33:46.938Z,6.65
2022-11-18T10:37:01.502Z,8.05
2022-11-18T10:40:06.479Z,7.70
2022-11-18T10:43:18.145Z,8.18
2022-11-18T10:46:28.758Z,7.80
2022-11-18T10:49:40.590Z,8.65
2022-11-18T10:52:53.153Z,7.45
2022-11-18T10:55:58.812Z,6.47
2022-11-18T10:59:03.089Z,8.88
2022-11-18T11:02:15.658Z,9.05
2022-11-18T11:05:20.465Z,7.93
2022-11-18T11:08:39.810Z,10.07
2022-11-18T11:11:44.568Z,5.03
2022-11-18T11:14:52.225Z,7.75
2022-11-18T11:18:12.843Z,7.93
2022-11-18T11:21:16.491Z,9.02
2022-11-18T11:24:20.269Z,10.85
2022-11-18T11:31:11.247Z,9.88
2022-11-18T11:34:18.939Z,10.68
2022-11-18T11:37:26.200Z,7.15
2022-11-18T11:40:31.045Z,6.03
2022-11-18T11:43:48.373Z,10.27
2022-11-18T11:47:24.328Z,12.80
2022-11-18T11:50:31.536Z,5.80
2022-11-18T11:53:47.761Z,10.73
2022-11-18T11:56:52.281Z,6.80
2022-11-18T12:00:00.176Z,8.30
2022-11-18T12:03:10.222Z,9.27
2022-11-18T12:06:14.473Z,5.45
2022-11-18T12:09:19.459Z,8.93
2022-11-18T12:12:38.101Z,9.40
2022-11-18T12:15:45.599Z,6.53
2022-11-18T12:18:50.159Z,6.03
2022-11-18T12:21:54.930Z,6.10
2022-11-18T12:24:57.528Z,5.18
2022-11-18T12:28:00.674Z,7.22
2022-11-18T12:31:21.711Z,4.90
2022-11-18T12:34:37.490Z,8.35
2022-11-18T12:38:01.626Z,4.60
2022-11-18T12:41:44.857Z,4.72
2022-11-18T12:44:52.467Z,3.22
2022-11-18T12:48:02.070Z,3.53
2022-11-18T12:51:48.083Z,3.70
2022-11-18T12:54:51.153Z,7.10
2022-11-18T12:57:55.008Z,3.45
2022-11-18T13:01:08.190Z,3.25
2022-11-18T13:04:20.128Z,1.90
2022-11-18T13:07:46.337Z,2.38
2022-11-18T13:10:54.606Z,6.53
2022-11-18T13:14:17.611Z,3.72
2022-11-18T13:17:44.785Z,2.47
2022-11-18T13:21:19.493Z,3.13
2022-11-18T13:24:31.358Z,5.00
2022-11-18T13:27:41.807Z,3.55
2022-11-18T13:30:56.292Z,3.38
2022-11-18T13:34:01.865Z,6.82
2022-11-18T13:37:04.609Z,5.07
2022-11-18T13:40:17.570Z,4.97
2022-11-18T13:44:03.824Z,2.38
2022-11-18T13:47:15.810Z,2.72
2022-11-18T13:50:22.727Z,3.15
2022-11-18T13:53:30.453Z,2.63
2022-11-18T13:57:07.194Z,2.75
2022-11-18T14:00:40.827Z,3.53
2022-11-18T14:03:50.827Z,3.72
2022-11-18T14:07:23.321Z,4.90
2022-11-18T14:14:13.214Z,4.75
2022-11-18T14:17:17.808Z,2.25
2022-11-18T14:20:22.138Z,3.05
2022-11-18T14:23:28.441Z,3.03
2022-11-18T14:26:32.000Z,2.45
2022-11-18T14:29:34.764Z,1.48
2022-11-18T14:32:37.340Z,1.73
2022-11-18T14:35:45.549Z,2.00
2022-11-18T14:39:19.224Z,1.98
2022-11-18T14:42:15.266Z,1.23
2022-11-18T14:45:18.025Z,1.33
2022-11-18T14:48:22.561Z,1.70
2022-11-18T14:51:29.256Z,1.85
2022-11-18T14:57:54.248Z,2.65
2022-11-18T15:01:00.054Z,1.80
2022-11-18T15:04:03.156Z,3.00
2022-11-18T15:07:17.247Z,13.35
2022-11-18T15:10:24.723Z,10.13
2022-11-18T15:13:30.095Z,20.20
2022-11-18T15:16:36.162Z,16.85
2022-11-18T15:19:40.748Z,13.30
2022-11-18T15:22:45.074Z,12.50
2022-11-18T15:25:49.876Z,11.75
2022-11-18T15:28:55.541Z,6.13
2022-11-18T15:31:58.802Z,6.75
2022-11-18T15:35:02.358Z,6.30
2022-11-18T15:38:11.699Z,4.75
2022-11-18T15:41:18.859Z,2.15
2022-11-18T15:44:28.309Z,3.72
2022-11-18T15:47:33.693Z,1.27
2022-11-18T15:50:49.967Z,3.35
2022-11-18T15:58:17.310Z,2.53
2022-11-18T16:01:58.315Z,5.18
2022-11-18T16:05:10.438Z,1.92
2022-11-18T16:09:41.948Z,1.45
2022-11-18T16:13:03.249Z,1.67
2022-11-18T16:16:11.822Z,1.85
2022-11-18T16:19:18.818Z,1.45
2022-11-18T16:22:21.735Z,2.10
2022-11-18T16:25:25.020Z,2.95
2022-11-18T16:28:29.822Z,1.67
2022-11-18T16:38:28.602Z,1.00
2022-11-18T16:40:28.282Z,2.08
2022-11-18T16:41:35.145Z,1.23
2022-11-18T16:44:46.164Z,3.40
2022-11-18T16:47:51.945Z,2.53
2022-11-18T16:51:21.358Z,6.50
2022-11-18T16:54:45.409Z,1.92
2022-11-18T16:57:48.708Z,2.67
2022-11-18T17:01:26.339Z,2.47
2022-11-18T17:05:20.564Z,2.90
2022-11-18T17:08:30.543Z,6.72
2022-11-18T17:11:39.495Z,2.95
2022-11-18T17:14:42.269Z,7.35
2022-11-18T17:17:46.304Z,2.60
2022-11-18T17:20:51.183Z,6.03
2022-11-18T17:24:08.347Z,6.13
2022-11-18T17:27:32.435Z,5.38
2022-11-18T17:30:48.603Z,2.92
2022-11-18T17:33:56.118Z,6.90
2022-11-18T17:37:04.942Z,8.65
2022-11-18T17:40:10.319Z,7.95
2022-11-18T17:43:15.049Z,5.15
2022-11-18T17:46:19.140Z,5.80
2022-11-18T17:49:23.136Z,5.72
2022-11-18T17:52:26.307Z,6.78
2022-11-18T17:55:29.408Z,5.68
2022-11-18T17:58:32.089Z,7.15
2022-11-18T18:01:35.776Z,2.67
2022-11-18T18:04:40.139Z,2.45
2022-11-18T18:07:43.088Z,2.53
2022-11-18T18:10:45.978Z,4.07
2022-11-18T18:14:09.767Z,4.10
2022-11-18T18:17:15.070Z,2.78
2022-11-18T18:20:23.877Z,6.13
2022-11-18T18:23:26.784Z,4.05
2022-11-18T18:26:55.581Z,4.38
2022-11-18T18:30:10.906Z,5.95
2022-11-18T18:33:13.980Z,3.55
2022-11-18T18:36:19.824Z,8.48
2022-11-18T18:39:25.676Z,8.23
2022-11-18T18:42:34.824Z,6.20
2022-11-18T18:45:57.476Z,3.90
2022-11-18T18:49:09.343Z,8.93
2022-11-18T18:52:32.578Z,12.00
2022-11-18T18:55:39.238Z,7.55
2022-11-18T18:58:47.735Z,5.03
2022-11-18T19:01:50.684Z,7.57
2022-11-18T19:04:53.313Z,4.07
2022-11-18T19:08:05.138Z,5.82
2022-11-18T19:11:07.809Z,7.07
2022-11-18T19:14:10.617Z,8.40
2022-11-18T19:17:19.911Z,8.77
2022-11-18T19:20:39.383Z,6.32
2022-11-18T19:23:43.777Z,6.18
2022-11-18T19:26:48.720Z,5.38
2022-11-18T19:29:55.507Z,7.80
2022-11-18T19:32:58.889Z,9.10
2022-11-18T19:36:17.009Z,8.10
2022-11-18T19:39:21.290Z,6.20
2022-11-18T19:42:44.579Z,12.75
2022-11-18T19:45:51.073Z,69.78
2022-11-18T19:48:55.699Z,37.17
2022-11-18T19:51:58.367Z,14.93
2022-11-18T19:55:02.351Z,13.18
2022-11-18T19:58:05.008Z,24.05
2022-11-18T20:01:12.012Z,14.85
2022-11-18T20:07:56.617Z,20.45
2022-11-18T20:11:09.099Z,19.20
2022-11-18T20:14:15.983Z,16.08
2022-11-18T20:17:19.406Z,16.92
2022-11-18T20:20:24.086Z,17.30
2022-11-18T20:23:26.694Z,17.38
2022-11-18T20:26:40.514Z,16.63
2022-11-18T20:29:44.354Z,21.02
2022-11-18T20:32:54.539Z,16.35
2022-11-18T20:36:09.256Z,15.57
2022-11-18T20:39:17.575Z,18.25
2022-11-18T20:42:48.597Z,21.70
2022-11-18T20:45:54.932Z,39.80
2022-11-18T20:48:57.868Z,14.00
2022-11-18T20:52:01.075Z,15.00
2022-11-18T20:55:05.954Z,13.25
2022-11-18T20:58:11.116Z,10.60
2022-11-18T21:01:22.887Z,11.25
2022-11-18T21:04:46.429Z,8.18
2022-11-18T21:07:50.648Z,12.90
2022-11-18T21:11:05.771Z,10.63
2022-11-18T21:14:24.405Z,6.20
2022-11-18T21:17:34.383Z,7.72
2022-11-18T21:21:10.371Z,7.85
2022-11-18T21:24:22.435Z,7.68
2022-11-18T21:27:30.366Z,7.50
2022-11-18T21:31:02.347Z,7.18
2022-11-18T21:34:07.043Z,5.00
2022-11-18T21:37:21.597Z,6.22
2022-11-18T21:40:56.957Z,9.57
2022-11-18T21:47:49.384Z,8.10
2022-11-18T21:51:11.328Z,8.85
2022-11-18T21:54:23.582Z,3.85
2022-11-18T21:57:26.488Z,6.25
2022-11-18T22:00:35.125Z,6.32
2022-11-18T22:03:38.962Z,4.13
2022-11-18T22:06:43.139Z,6.28
2022-11-18T22:10:02.034Z,7.68
2022-11-18T22:13:08.234Z,8.77
2022-11-18T22:16:13.168Z,8.85
2022-11-18T22:19:36.415Z,6.38
2022-11-18T22:22:50.997Z,5.68
2022-11-18T22:26:01.617Z,7.30
2022-11-18T22:29:15.042Z,5.47
2022-11-18T22:32:21.006Z,4.60
2022-11-18T22:35:24.057Z,6.97
2022-11-18T22:38:28.482Z,4.63
2022-11-18T22:41:48.814Z,3.65
2022-11-18T22:44:54.539Z,4.82
2022-11-18T22:47:57.201Z,2.60
2022-11-18T22:51:01.327Z,4.70
2022-11-18T22:54:37.906Z,10.73
2022-11-18T22:57:42.325Z,4.18
2022-11-18T23:00:46.626Z,5.57
2022-11-18T23:04:19.217Z,5.28
2022-11-18T23:07:29.210Z,5.18
2022-11-18T23:10:39.685Z,2.40
2022-11-18T23:14:05.138Z,2.45
2022-11-18T23:17:08.396Z,1.93
2022-11-18T23:20:12.014Z,1.83
2022-11-18T23:23:19.462Z,2.33
2022-11-18T23:26:23.788Z,2.03
2022-11-18T23:29:32.604Z,3.22
2022-11-18T23:32:35.724Z,6.05
2022-11-18T23:35:38.393Z,1.45
2022-11-18T23:38:44.681Z,6.35
2022-11-18T23:41:51.328Z,3.45
2022-11-18T23:44:56.527Z,8.55
2022-11-18T23:48:03.873Z,12.65
2022-11-18T23:51:07.776Z,10.57
2022-11-18T23:54:10.741Z,10.57
2022-11-18T23:57:14.688Z,7.63
